<?xml version="1.0" encoding="UTF-8" standalone="no" ?>
<gpx xmlns="http://www.topografix.com/GPX/1/1" xmlns:xsi="http://www.w3.org/2001/XMLSchema-instance" xsi:schemaLocation="http://www.topografix.com/GPX/1/1 http://www.topografix.com/GPX/1/1/gpx.xsd" version="1.1" creator="VisuGPX - https://www.visugpx.com">
  <metadata>
    <name>De Meillerie à Salvigny</name>
    <desc><![CDATA[Randonnée en Haute-Savoie]]></desc>
  </metadata>
  <trk>
    <name><![CDATA[ACTIVE LOG: 30 JUL 2015 12:41]]></name>
    <trkseg>
      <trkpt lat="46.10108" lon="6.85376">
        <ele>1037.88</ele>
        <time>2015-07-30T10:43:42Z</time>
      </trkpt>
      <trkpt lat="46.10082" lon="6.85346">
        <ele>1036.44</ele>
        <time>2015-07-30T10:44:47Z</time>
      </trkpt>
      <trkpt lat="46.10039" lon="6.85325">
        <ele>1035.96</ele>
        <time>2015-07-30T10:45:52Z</time>
      </trkpt>
      <trkpt lat="46.09951" lon="6.85313">
        <ele>1035</ele>
        <time>2015-07-30T10:46:57Z</time>
      </trkpt>
      <trkpt lat="46.09912" lon="6.85269">
        <ele>1037.88</ele>
        <time>2015-07-30T10:48:02Z</time>
      </trkpt>
      <trkpt lat="46.0986" lon="6.85212">
        <ele>1031.15</ele>
        <time>2015-07-30T10:49:07Z</time>
      </trkpt>
      <trkpt lat="46.09829" lon="6.85165">
        <ele>1032.11</ele>
        <time>2015-07-30T10:50:12Z</time>
      </trkpt>
      <trkpt lat="46.09809" lon="6.85111">
        <ele>1034.52</ele>
        <time>2015-07-30T10:51:17Z</time>
      </trkpt>
      <trkpt lat="46.09785" lon="6.85045">
        <ele>1038.36</ele>
        <time>2015-07-30T10:52:22Z</time>
      </trkpt>
      <trkpt lat="46.09742" lon="6.85017">
        <ele>1041.73</ele>
        <time>2015-07-30T10:53:27Z</time>
      </trkpt>
      <trkpt lat="46.09678" lon="6.85001">
        <ele>1042.69</ele>
        <time>2015-07-30T10:54:32Z</time>
      </trkpt>
      <trkpt lat="46.09649" lon="6.84937">
        <ele>1038.84</ele>
        <time>2015-07-30T10:55:37Z</time>
      </trkpt>
      <trkpt lat="46.09605" lon="6.84885">
        <ele>1036.92</ele>
        <time>2015-07-30T10:56:42Z</time>
      </trkpt>
      <trkpt lat="46.09564" lon="6.84823">
        <ele>1039.8</ele>
        <time>2015-07-30T10:57:47Z</time>
      </trkpt>
      <trkpt lat="46.0945" lon="6.84735">
        <ele>1037.4</ele>
        <time>2015-07-30T10:58:52Z</time>
      </trkpt>
      <trkpt lat="46.09384" lon="6.84694">
        <ele>1036.92</ele>
        <time>2015-07-30T10:59:57Z</time>
      </trkpt>
      <trkpt lat="46.09407" lon="6.84614">
        <ele>1035.48</ele>
        <time>2015-07-30T11:01:02Z</time>
      </trkpt>
      <trkpt lat="46.09468" lon="6.84588">
        <ele>1036.44</ele>
        <time>2015-07-30T11:02:07Z</time>
      </trkpt>
      <trkpt lat="46.09497" lon="6.84582">
        <ele>1036.44</ele>
        <time>2015-07-30T11:02:43Z</time>
      </trkpt>
    </trkseg>
  </trk>
</gpx>